首页
METAR-TAF:

METAR-TAF

机场 :

莱克查尔斯, 路易斯安那州, 美国

纬度: 30-07-34N, 经度: 093-13-24W, 海拔: 5米

当前天气观测

该预报发布于59分钟前的02:53 UTC
静风
温度 14°C
湿度 94%
气压 1016 hPa
能見度: 12.9公里
天空无云

METAR: KLCH 170253Z 00000KT 8SM CLR 14/13 A3001 RMK AO2 SLP169 T01440128 53007

时间: 21:52 (03:52 UTC)

预报

该预报发布于4小时和27分钟前的23:25 UTC
预报有效从17日的 00点(UTC)到 17日的 24点(UTC)
风速4节,风向多变
能見度: 10公里
多云层高于5000英尺
多云层高于20000英尺
从 17日的 0600点(UTC)
风速3节,风向多变
能見度: 8.0公里
阴天层高于800英尺
轻雾
从 17日的 0800点(UTC)
风速3节,风向多变
能見度: 3.2公里
阴天层高于500英尺
轻雾
从 17日的 1000点(UTC)
风速3节,风向多变
能見度: 0.8公里
阴天层高于300英尺
从 17日的 1500点(UTC)
风速6节,风向南转南东
能見度: 6.4公里
阴天层高于800英尺
轻雾
从 17日的 1800点(UTC)
风速10节,风向
能見度: 10公里
阴天层高于1500英尺
附近有阵雨
几率 30%
从 17日的 18点(UTC)到 17日的 24点(UTC)
能見度: 4.8公里
阴天层高于800英尺
阵雨

TAF: KLCH 162325Z 1700/1724 VRB04KT P6SM BKN050 BKN200 FM170600 VRB03KT 5SM BR OVC008 FM170800 VRB03KT 2SM BR OVC005 FM171000 VRB03KT 1/2SM FG OVC003 FM171500 15006KT 4SM BR OVC008 FM171800 18010KT P6SM VCSH OVC015 PROB30 1718/1724 3SM SHRA OVC008

超过4000个机场的气象观测和天气预报(METAR&TAF报告)。

可查询的气象台以黄色和红色小点在地图上表示。

将鼠标移到小点上方,可查看气象台名称。

然后点击查看天气观测和预报。

如需切换地图:点击带黑十字的绿色按钮放大地图;点击带横线的绿色按钮缩小地图;或者点击绿色箭头查看邻近地区的地图。


METAR-TAF: